8°C Temp
5°C Dewpoint
% Humidity
Temperature
10 KM/H
6 MPH
5 KTS
270°
Due West

Wind Speed
Partly Cloudy
Conditions
Pressure 1041.92 (hPa) - 30.77 (in)
Visibility 6.2 (mi) - 10.0 (km)

Current Conditions
EGOV
Location 9(mi)
Metar :EGOV 210550Z AUTO 27005KT 9999 FEW021/// BKN027/// 08/05 Q1042
Tue 21st January 06:50 am

Airport
  Metar Aviation API Data Provided by https://www.checkwx.com/ PHP scripts by weather34.com ©2020